sensor_id;sensor_type;location;lat;lon;timestamp;temperature;humidity
59961;DHT22;55902;-37.980;-63.602;2023-01-29T00:00:14;30.30;33.70
59961;DHT22;55902;-37.980;-63.602;2023-01-29T00:02:41;30.20;35.30
59961;DHT22;55902;-37.980;-63.602;2023-01-29T00:05:08;30.00;34.70
59961;DHT22;55902;-37.980;-63.602;2023-01-29T00:07:35;29.80;35.00
59961;DHT22;55902;-37.980;-63.602;2023-01-29T00:10:02;29.70;36.20
59961;DHT22;55902;-37.980;-63.602;2023-01-29T00:12:32;29.60;36.60
59961;DHT22;55902;-37.980;-63.602;2023-01-29T00:14:59;29.50;36.70
59961;DHT22;55902;-37.980;-63.602;2023-01-29T00:17:26;29.50;37.00
59961;DHT22;55902;-37.980;-63.602;2023-01-29T00:19:53;29.40;37.20
59961;DHT22;55902;-37.980;-63.602;2023-01-29T00:22:20;29.30;38.10
59961;DHT22;55902;-37.980;-63.602;2023-01-29T00:24:54;29.30;37.90
59961;DHT22;55902;-37.980;-63.602;2023-01-29T00:27:23;29.20;38.30
59961;DHT22;55902;-37.980;-63.602;2023-01-29T00:29:50;29.00;39.10
59961;DHT22;55902;-37.980;-63.602;2023-01-29T00:32:34;29.00;38.50
59961;DHT22;55902;-37.980;-63.602;2023-01-29T00:35:01;28.90;38.90
59961;DHT22;55902;-37.980;-63.602;2023-01-29T00:37:35;28.80;38.40
59961;DHT22;55902;-37.980;-63.602;2023-01-29T00:40:02;28.80;39.20
59961;DHT22;55902;-37.980;-63.602;2023-01-29T00:42:32;28.70;38.70
59961;DHT22;55902;-37.980;-63.602;2023-01-29T00:45:18;28.60;39.30
59961;DHT22;55902;-37.980;-63.602;2023-01-29T00:47:45;28.50;39.50
59961;DHT22;55902;-37.980;-63.602;2023-01-29T00:50:12;28.40;39.60
59961;DHT22;55902;-37.980;-63.602;2023-01-29T00:52:39;28.40;39.70
59961;DHT22;55902;-37.980;-63.602;2023-01-29T00:55:08;28.30;40.00
59961;DHT22;55902;-37.980;-63.602;2023-01-29T00:57:36;28.20;39.70
59961;DHT22;55902;-37.980;-63.602;2023-01-29T01:00:05;28.10;40.60
59961;DHT22;55902;-37.980;-63.602;2023-01-29T01:02:32;28.00;41.00
59961;DHT22;55902;-37.980;-63.602;2023-01-29T01:05:18;27.90;41.40
59961;DHT22;55902;-37.980;-63.602;2023-01-29T01:07:50;27.80;41.40
59961;DHT22;55902;-37.980;-63.602;2023-01-29T01:10:29;27.70;41.70
59961;DHT22;55902;-37.980;-63.602;2023-01-29T01:13:00;27.60;40.80
59961;DHT22;55902;-37.980;-63.602;2023-01-29T01:15:31;27.60;40.50
59961;DHT22;55902;-37.980;-63.602;2023-01-29T01:18:00;27.50;40.70
59961;DHT22;55902;-37.980;-63.602;2023-01-29T01:20:33;27.50;41.00
59961;DHT22;55902;-37.980;-63.602;2023-01-29T01:23:00;27.40;41.70
59961;DHT22;55902;-37.980;-63.602;2023-01-29T01:25:27;27.30;42.90
59961;DHT22;55902;-37.980;-63.602;2023-01-29T01:27:55;27.20;43.30
59961;DHT22;55902;-37.980;-63.602;2023-01-29T01:30:25;27.00;43.20
59961;DHT22;55902;-37.980;-63.602;2023-01-29T01:32:58;26.90;44.30
59961;DHT22;55902;-37.980;-63.602;2023-01-29T01:35:25;26.80;45.30
59961;DHT22;55902;-37.980;-63.602;2023-01-29T01:37:52;26.70;43.00
59961;DHT22;55902;-37.980;-63.602;2023-01-29T01:40:21;26.70;43.50
59961;DHT22;55902;-37.980;-63.602;2023-01-29T01:42:57;26.60;42.40
59961;DHT22;55902;-37.980;-63.602;2023-01-29T01:48:11;26.50;45.00
59961;DHT22;55902;-37.980;-63.602;2023-01-29T01:50:51;26.40;45.10
59961;DHT22;55902;-37.980;-63.602;2023-01-29T01:53:30;26.30;44.70
59961;DHT22;55902;-37.980;-63.602;2023-01-29T01:56:15;26.20;45.70
59961;DHT22;55902;-37.980;-63.602;2023-01-29T01:58:47;26.20;44.30
59961;DHT22;55902;-37.980;-63.602;2023-01-29T02:01:16;26.20;43.70
59961;DHT22;55902;-37.980;-63.602;2023-01-29T02:03:58;26.10;45.00
59961;DHT22;55902;-37.980;-63.602;2023-01-29T02:06:44;26.10;44.70
59961;DHT22;55902;-37.980;-63.602;2023-01-29T02:09:37;26.10;44.70
59961;DHT22;55902;-37.980;-63.602;2023-01-29T02:12:08;26.00;44.60
59961;DHT22;55902;-37.980;-63.602;2023-01-29T02:14:40;26.00;43.40
59961;DHT22;55902;-37.980;-63.602;2023-01-29T02:17:11;26.00;42.10
59961;DHT22;55902;-37.980;-63.602;2023-01-29T02:31:04;25.70;45.00
59961;DHT22;55902;-37.980;-63.602;2023-01-29T02:44:04;25.60;46.40
59961;DHT22;55902;-37.980;-63.602;2023-01-29T02:49:51;25.60;47.20
59961;DHT22;55902;-37.980;-63.602;2023-01-29T02:52:17;25.50;45.90
59961;DHT22;55902;-37.980;-63.602;2023-01-29T02:54:57;25.50;46.90
59961;DHT22;55902;-37.980;-63.602;2023-01-29T02:57:37;25.50;47.10
59961;DHT22;55902;-37.980;-63.602;2023-01-29T03:00:13;25.40;46.70
59961;DHT22;55902;-37.980;-63.602;2023-01-29T03:02:59;25.40;46.50
59961;DHT22;55902;-37.980;-63.602;2023-01-29T03:11:09;25.10;48.90
59961;DHT22;55902;-37.980;-63.602;2023-01-29T03:14:05;25.00;49.80
59961;DHT22;55902;-37.980;-63.602;2023-01-29T03:16:49;24.90;49.40
59961;DHT22;55902;-37.980;-63.602;2023-01-29T03:19:38;24.90;50.00
59961;DHT22;55902;-37.980;-63.602;2023-01-29T03:22:07;24.70;50.70
59961;DHT22;55902;-37.980;-63.602;2023-01-29T03:31:02;24.50;48.70
59961;DHT22;55902;-37.980;-63.602;2023-01-29T03:33:55;24.50;49.80
59961;DHT22;55902;-37.980;-63.602;2023-01-29T03:36:43;24.50;49.70
59961;DHT22;55902;-37.980;-63.602;2023-01-29T03:39:16;24.50;50.80
59961;DHT22;55902;-37.980;-63.602;2023-01-29T03:44:17;24.40;51.30
59961;DHT22;55902;-37.980;-63.602;2023-01-29T03:46:54;24.40;50.40
59961;DHT22;55902;-37.980;-63.602;2023-01-29T03:49:30;24.40;51.90
59961;DHT22;55902;-37.980;-63.602;2023-01-29T03:52:09;24.40;50.90
59961;DHT22;55902;-37.980;-63.602;2023-01-29T03:54:56;24.40;50.30
59961;DHT22;55902;-37.980;-63.602;2023-01-29T04:00:07;24.30;53.20
59961;DHT22;55902;-37.980;-63.602;2023-01-29T04:15:19;24.10;53.20
59961;DHT22;55902;-37.980;-63.602;2023-01-29T04:17:50;24.00;53.80
59961;DHT22;55902;-37.980;-63.602;2023-01-29T04:20:18;23.90;55.00
59961;DHT22;55902;-37.980;-63.602;2023-01-29T04:22:48;23.90;55.00
59961;DHT22;55902;-37.980;-63.602;2023-01-29T04:25:41;23.90;53.80
59961;DHT22;55902;-37.980;-63.602;2023-01-29T04:28:40;23.80;55.00
59961;DHT22;55902;-37.980;-63.602;2023-01-29T04:31:07;23.80;55.30
59961;DHT22;55902;-37.980;-63.602;2023-01-29T04:36:38;23.80;53.80
59961;DHT22;55902;-37.980;-63.602;2023-01-29T04:41:52;23.70;54.30
59961;DHT22;55902;-37.980;-63.602;2023-01-29T04:44:41;23.60;54.50
59961;DHT22;55902;-37.980;-63.602;2023-01-29T04:52:54;23.40;54.90
59961;DHT22;55902;-37.980;-63.602;2023-01-29T04:55:38;23.20;56.10
59961;DHT22;55902;-37.980;-63.602;2023-01-29T04:58:37;23.10;57.00
59961;DHT22;55902;-37.980;-63.602;2023-01-29T05:01:07;23.10;57.50
59961;DHT22;55902;-37.980;-63.602;2023-01-29T05:03:37;23.00;56.70
59961;DHT22;55902;-37.980;-63.602;2023-01-29T05:06:10;22.90;57.80
59961;DHT22;55902;-37.980;-63.602;2023-01-29T05:08:38;22.90;57.90
59961;DHT22;55902;-37.980;-63.602;2023-01-29T05:11:10;22.90;58.10
59961;DHT22;55902;-37.980;-63.602;2023-01-29T05:13:39;22.90;56.80
59961;DHT22;55902;-37.980;-63.602;2023-01-29T05:16:42;22.80;57.40
59961;DHT22;55902;-37.980;-63.602;2023-01-29T05:19:12;22.70;59.10
59961;DHT22;55902;-37.980;-63.602;2023-01-29T05:21:44;22.70;58.80
59961;DHT22;55902;-37.980;-63.602;2023-01-29T05:24:16;22.70;59.80
59961;DHT22;55902;-37.980;-63.602;2023-01-29T05:26:46;22.60;59.20
59961;DHT22;55902;-37.980;-63.602;2023-01-29T05:29:31;22.60;59.40
59961;DHT22;55902;-37.980;-63.602;2023-01-29T05:31:58;22.50;58.40
59961;DHT22;55902;-37.980;-63.602;2023-01-29T05:34:28;22.50;59.70
59961;DHT22;55902;-37.980;-63.602;2023-01-29T05:36:55;22.40;61.10
59961;DHT22;55902;-37.980;-63.602;2023-01-29T05:39:25;22.30;60.10
59961;DHT22;55902;-37.980;-63.602;2023-01-29T05:41:52;22.30;61.50
59961;DHT22;55902;-37.980;-63.602;2023-01-29T05:44:19;22.20;59.90
59961;DHT22;55902;-37.980;-63.602;2023-01-29T05:46:46;22.10;62.00
59961;DHT22;55902;-37.980;-63.602;2023-01-29T05:49:13;22.10;62.40
59961;DHT22;55902;-37.980;-63.602;2023-01-29T05:51:42;22.10;61.10
59961;DHT22;55902;-37.980;-63.602;2023-01-29T05:54:11;22.00;60.40
59961;DHT22;55902;-37.980;-63.602;2023-01-29T05:56:38;22.00;60.50
59961;DHT22;55902;-37.980;-63.602;2023-01-29T05:59:06;21.90;62.40
59961;DHT22;55902;-37.980;-63.602;2023-01-29T06:01:33;21.80;64.50
59961;DHT22;55902;-37.980;-63.602;2023-01-29T06:04:00;21.80;65.00
59961;DHT22;55902;-37.980;-63.602;2023-01-29T06:06:27;21.70;64.20
59961;DHT22;55902;-37.980;-63.602;2023-01-29T06:08:55;21.70;66.30
59961;DHT22;55902;-37.980;-63.602;2023-01-29T06:11:22;21.70;64.90
59961;DHT22;55902;-37.980;-63.602;2023-01-29T06:13:50;21.60;65.10
59961;DHT22;55902;-37.980;-63.602;2023-01-29T06:16:20;21.50;65.90
59961;DHT22;55902;-37.980;-63.602;2023-01-29T06:18:47;21.50;66.70
59961;DHT22;55902;-37.980;-63.602;2023-01-29T06:21:17;21.40;65.80
59961;DHT22;55902;-37.980;-63.602;2023-01-29T06:23:47;21.40;66.20
59961;DHT22;55902;-37.980;-63.602;2023-01-29T06:44:11;21.10;67.70
59961;DHT22;55902;-37.980;-63.602;2023-01-29T06:46:38;21.00;68.90
59961;DHT22;55902;-37.980;-63.602;2023-01-29T06:49:08;20.90;68.80
59961;DHT22;55902;-37.980;-63.602;2023-01-29T06:51:35;20.80;71.20
59961;DHT22;55902;-37.980;-63.602;2023-01-29T06:54:02;20.80;69.30
59961;DHT22;55902;-37.980;-63.602;2023-01-29T06:56:29;20.70;68.90
59961;DHT22;55902;-37.980;-63.602;2023-01-29T06:58:56;20.70;71.10
59961;DHT22;55902;-37.980;-63.602;2023-01-29T07:01:23;20.70;70.30
59961;DHT22;55902;-37.980;-63.602;2023-01-29T07:03:50;20.70;68.20
59961;DHT22;55902;-37.980;-63.602;2023-01-29T07:06:25;20.60;72.30
59961;DHT22;55902;-37.980;-63.602;2023-01-29T07:08:52;20.60;71.20
59961;DHT22;55902;-37.980;-63.602;2023-01-29T07:11:19;20.60;71.20
59961;DHT22;55902;-37.980;-63.602;2023-01-29T07:13:46;20.60;71.90
59961;DHT22;55902;-37.980;-63.602;2023-01-29T07:16:13;20.50;73.30
59961;DHT22;55902;-37.980;-63.602;2023-01-29T07:18:40;20.50;74.10
59961;DHT22;55902;-37.980;-63.602;2023-01-29T07:21:10;20.40;72.20
59961;DHT22;55902;-37.980;-63.602;2023-01-29T07:23:37;20.50;71.10
59961;DHT22;55902;-37.980;-63.602;2023-01-29T07:26:05;20.50;73.90
59961;DHT22;55902;-37.980;-63.602;2023-01-29T07:28:37;20.50;71.90
59961;DHT22;55902;-37.980;-63.602;2023-01-29T07:31:10;20.50;72.10
59961;DHT22;55902;-37.980;-63.602;2023-01-29T07:33:37;20.50;69.90
59961;DHT22;55902;-37.980;-63.602;2023-01-29T07:36:08;20.50;72.10
59961;DHT22;55902;-37.980;-63.602;2023-01-29T07:38:35;20.50;72.30
59961;DHT22;55902;-37.980;-63.602;2023-01-29T07:41:05;20.40;71.80
59961;DHT22;55902;-37.980;-63.602;2023-01-29T07:43:32;20.40;72.00
59961;DHT22;55902;-37.980;-63.602;2023-01-29T07:46:03;20.40;72.30
59961;DHT22;55902;-37.980;-63.602;2023-01-29T07:48:30;20.40;73.30
59961;DHT22;55902;-37.980;-63.602;2023-01-29T07:50:57;20.40;74.50
59961;DHT22;55902;-37.980;-63.602;2023-01-29T07:53:25;20.30;75.50
59961;DHT22;55902;-37.980;-63.602;2023-01-29T07:55:52;20.30;75.30
59961;DHT22;55902;-37.980;-63.602;2023-01-29T07:58:19;20.30;76.20
59961;DHT22;55902;-37.980;-63.602;2023-01-29T08:00:46;20.30;76.20
59961;DHT22;55902;-37.980;-63.602;2023-01-29T08:03:15;20.20;76.20
59961;DHT22;55902;-37.980;-63.602;2023-01-29T08:05:43;20.20;76.30
59961;DHT22;55902;-37.980;-63.602;2023-01-29T08:08:13;20.20;76.80
59961;DHT22;55902;-37.980;-63.602;2023-01-29T08:10:42;20.10;78.00
59961;DHT22;55902;-37.980;-63.602;2023-01-29T08:13:09;20.10;78.10
59961;DHT22;55902;-37.980;-63.602;2023-01-29T08:15:36;20.00;78.50
59961;DHT22;55902;-37.980;-63.602;2023-01-29T08:18:03;20.10;78.00
59961;DHT22;55902;-37.980;-63.602;2023-01-29T08:20:33;20.00;79.20
59961;DHT22;55902;-37.980;-63.602;2023-01-29T08:23:09;20.00;80.80
59961;DHT22;55902;-37.980;-63.602;2023-01-29T08:25:38;20.00;81.40
59961;DHT22;55902;-37.980;-63.602;2023-01-29T08:28:08;20.00;82.60
59961;DHT22;55902;-37.980;-63.602;2023-01-29T08:30:37;19.90;82.40
59961;DHT22;55902;-37.980;-63.602;2023-01-29T08:33:04;19.90;81.40
59961;DHT22;55902;-37.980;-63.602;2023-01-29T08:35:31;19.90;83.20
59961;DHT22;55902;-37.980;-63.602;2023-01-29T08:37:59;19.90;83.60
59961;DHT22;55902;-37.980;-63.602;2023-01-29T08:40:28;19.90;83.20
59961;DHT22;55902;-37.980;-63.602;2023-01-29T08:43:05;19.90;84.10
59961;DHT22;55902;-37.980;-63.602;2023-01-29T08:45:34;19.90;83.50
59961;DHT22;55902;-37.980;-63.602;2023-01-29T08:48:02;19.90;82.60
59961;DHT22;55902;-37.980;-63.602;2023-01-29T08:50:33;19.90;82.50
59961;DHT22;55902;-37.980;-63.602;2023-01-29T08:53:02;19.90;84.70
59961;DHT22;55902;-37.980;-63.602;2023-01-29T08:55:35;19.90;84.20
59961;DHT22;55902;-37.980;-63.602;2023-01-29T08:58:05;19.80;85.80
59961;DHT22;55902;-37.980;-63.602;2023-01-29T09:00:33;19.80;86.70
59961;DHT22;55902;-37.980;-63.602;2023-01-29T09:03:00;19.80;88.10
59961;DHT22;55902;-37.980;-63.602;2023-01-29T09:05:28;19.80;88.10
59961;DHT22;55902;-37.980;-63.602;2023-01-29T09:08:01;19.70;89.10
59961;DHT22;55902;-37.980;-63.602;2023-01-29T09:10:28;19.80;88.80
59961;DHT22;55902;-37.980;-63.602;2023-01-29T09:23:07;19.90;89.40
59961;DHT22;55902;-37.980;-63.602;2023-01-29T09:25:35;19.90;86.70
59961;DHT22;55902;-37.980;-63.602;2023-01-29T09:28:06;19.90;88.20
59961;DHT22;55902;-37.980;-63.602;2023-01-29T09:30:34;20.00;86.90
59961;DHT22;55902;-37.980;-63.602;2023-01-29T09:33:04;20.00;88.20
59961;DHT22;55902;-37.980;-63.602;2023-01-29T09:35:31;20.00;88.10
59961;DHT22;55902;-37.980;-63.602;2023-01-29T09:37:59;20.00;88.40
59961;DHT22;55902;-37.980;-63.602;2023-01-29T09:46:06;20.10;87.30
59961;DHT22;55902;-37.980;-63.602;2023-01-29T09:48:40;20.10;88.00
59961;DHT22;55902;-37.980;-63.602;2023-01-29T09:51:20;20.10;86.80
59961;DHT22;55902;-37.980;-63.602;2023-01-29T09:54:16;20.10;86.30
59961;DHT22;55902;-37.980;-63.602;2023-01-29T09:56:48;20.20;88.80
59961;DHT22;55902;-37.980;-63.602;2023-01-29T09:59:22;20.20;88.30
59961;DHT22;55902;-37.980;-63.602;2023-01-29T10:07:30;20.30;88.30
59961;DHT22;55902;-37.980;-63.602;2023-01-29T10:10:29;20.40;89.10
59961;DHT22;55902;-37.980;-63.602;2023-01-29T10:13:28;20.50;88.70
59961;DHT22;55902;-37.980;-63.602;2023-01-29T10:16:22;20.60;88.70
59961;DHT22;55902;-37.980;-63.602;2023-01-29T10:19:09;20.60;88.20
59961;DHT22;55902;-37.980;-63.602;2023-01-29T10:22:05;20.70;89.40
59961;DHT22;55902;-37.980;-63.602;2023-01-29T10:25:09;20.80;87.90
59961;DHT22;55902;-37.980;-63.602;2023-01-29T10:27:39;20.90;88.30
59961;DHT22;55902;-37.980;-63.602;2023-01-29T10:32:50;21.00;87.40
59961;DHT22;55902;-37.980;-63.602;2023-01-29T10:38:01;21.20;88.00
59961;DHT22;55902;-37.980;-63.602;2023-01-29T10:40:42;21.20;88.20
59961;DHT22;55902;-37.980;-63.602;2023-01-29T10:43:31;21.30;87.00
59961;DHT22;55902;-37.980;-63.602;2023-01-29T10:58:55;22.10;86.10
59961;DHT22;55902;-37.980;-63.602;2023-01-29T11:01:25;22.20;85.50
59961;DHT22;55902;-37.980;-63.602;2023-01-29T11:04:07;22.30;85.00
59961;DHT22;55902;-37.980;-63.602;2023-01-29T11:06:39;22.50;84.30
59961;DHT22;55902;-37.980;-63.602;2023-01-29T11:14:43;22.70;83.10
59961;DHT22;55902;-37.980;-63.602;2023-01-29T11:17:16;22.90;81.60
59961;DHT22;55902;-37.980;-63.602;2023-01-29T11:19:45;23.00;81.40
59961;DHT22;55902;-37.980;-63.602;2023-01-29T11:24:41;23.20;79.70
59961;DHT22;55902;-37.980;-63.602;2023-01-29T11:27:38;23.30;78.90
59961;DHT22;55902;-37.980;-63.602;2023-01-29T11:30:38;23.50;78.90
59961;DHT22;55902;-37.980;-63.602;2023-01-29T11:33:17;23.60;78.40
59961;DHT22;55902;-37.980;-63.602;2023-01-29T11:35:45;23.80;77.60
59961;DHT22;55902;-37.980;-63.602;2023-01-29T11:38:24;23.90;76.70
59961;DHT22;55902;-37.980;-63.602;2023-01-29T11:40:52;24.10;75.80
59961;DHT22;55902;-37.980;-63.602;2023-01-29T11:43:37;24.20;75.00
59961;DHT22;55902;-37.980;-63.602;2023-01-29T11:46:10;24.30;74.10
59961;DHT22;55902;-37.980;-63.602;2023-01-29T11:48:44;24.50;73.20
59961;DHT22;55902;-37.980;-63.602;2023-01-29T11:51:24;24.70;71.60
59961;DHT22;55902;-37.980;-63.602;2023-01-29T11:54:00;24.80;71.90
59961;DHT22;55902;-37.980;-63.602;2023-01-29T11:56:41;25.00;72.20
59961;DHT22;55902;-37.980;-63.602;2023-01-29T12:02:22;25.30;71.00
59961;DHT22;55902;-37.980;-63.602;2023-01-29T12:04:53;25.60;70.40
59961;DHT22;55902;-37.980;-63.602;2023-01-29T12:07:22;26.10;68.40
59961;DHT22;55902;-37.980;-63.602;2023-01-29T12:09:55;26.70;68.00
59961;DHT22;55902;-37.980;-63.602;2023-01-29T12:12:36;27.40;66.30
59961;DHT22;55902;-37.980;-63.602;2023-01-29T12:15:15;28.00;64.90
59961;DHT22;55902;-37.980;-63.602;2023-01-29T12:17:47;28.60;63.00
59961;DHT22;55902;-37.980;-63.602;2023-01-29T12:20:28;29.10;63.70
59961;DHT22;55902;-37.980;-63.602;2023-01-29T12:23:18;29.60;60.10
59961;DHT22;55902;-37.980;-63.602;2023-01-29T12:25:57;29.90;59.70
59961;DHT22;55902;-37.980;-63.602;2023-01-29T12:28:36;30.30;60.60
59961;DHT22;55902;-37.980;-63.602;2023-01-29T12:31:37;30.70;59.40
59961;DHT22;55902;-37.980;-63.602;2023-01-29T12:37:12;31.10;56.60
59961;DHT22;55902;-37.980;-63.602;2023-01-29T12:39:45;31.40;56.90
59961;DHT22;55902;-37.980;-63.602;2023-01-29T12:42:20;31.80;57.10
59961;DHT22;55902;-37.980;-63.602;2023-01-29T12:49:54;32.40;53.70
59961;DHT22;55902;-37.980;-63.602;2023-01-29T12:52:32;32.60;54.00
59961;DHT22;55902;-37.980;-63.602;2023-01-29T13:05:19;33.20;51.30
59961;DHT22;55902;-37.980;-63.602;2023-01-29T13:07:58;33.20;51.90
59961;DHT22;55902;-37.980;-63.602;2023-01-29T13:10:34;33.50;53.20
59961;DHT22;55902;-37.980;-63.602;2023-01-29T13:16:05;34.10;51.80
59961;DHT22;55902;-37.980;-63.602;2023-01-29T13:21:30;34.20;50.20
59961;DHT22;55902;-37.980;-63.602;2023-01-29T13:24:02;34.40;49.80
59961;DHT22;55902;-37.980;-63.602;2023-01-29T13:26:30;34.50;49.00
59961;DHT22;55902;-37.980;-63.602;2023-01-29T13:28:59;34.80;49.50
59961;DHT22;55902;-37.980;-63.602;2023-01-29T13:31:30;35.00;49.40
59961;DHT22;55902;-37.980;-63.602;2023-01-29T13:34:14;35.30;49.00
59961;DHT22;55902;-37.980;-63.602;2023-01-29T13:36:56;35.70;48.30
59961;DHT22;55902;-37.980;-63.602;2023-01-29T13:39:30;36.00;47.60
59961;DHT22;55902;-37.980;-63.602;2023-01-29T13:42:00;35.80;47.80
59961;DHT22;55902;-37.980;-63.602;2023-01-29T13:44:35;35.80;46.20
59961;DHT22;55902;-37.980;-63.602;2023-01-29T13:47:27;35.90;46.80
59961;DHT22;55902;-37.980;-63.602;2023-01-29T13:55:22;35.50;45.80
59961;DHT22;55902;-37.980;-63.602;2023-01-29T13:57:54;35.50;46.20
59961;DHT22;55902;-37.980;-63.602;2023-01-29T14:05:55;36.10;46.00
59961;DHT22;55902;-37.980;-63.602;2023-01-29T14:08:36;36.30;44.90
59961;DHT22;55902;-37.980;-63.602;2023-01-29T14:13:44;36.40;45.50
59961;DHT22;55902;-37.980;-63.602;2023-01-29T14:18:56;36.80;44.20
59961;DHT22;55902;-37.980;-63.602;2023-01-29T14:21:27;36.80;41.60
59961;DHT22;55902;-37.980;-63.602;2023-01-29T14:31:54;36.70;40.40
59961;DHT22;55902;-37.980;-63.602;2023-01-29T14:34:27;37.00;42.90
59961;DHT22;55902;-37.980;-63.602;2023-01-29T14:57:32;38.20;38.50
59961;DHT22;55902;-37.980;-63.602;2023-01-29T15:00:05;38.30;38.80
59961;DHT22;55902;-37.980;-63.602;2023-01-29T15:02:42;38.30;39.10
59961;DHT22;55902;-37.980;-63.602;2023-01-29T15:05:19;38.40;38.40
59961;DHT22;55902;-37.980;-63.602;2023-01-29T15:07:59;38.30;37.60
59961;DHT22;55902;-37.980;-63.602;2023-01-29T15:13:08;37.80;37.90
59961;DHT22;55902;-37.980;-63.602;2023-01-29T15:16:28;37.80;37.80
59961;DHT22;55902;-37.980;-63.602;2023-01-29T15:19:23;38.00;39.10
59961;DHT22;55902;-37.980;-63.602;2023-01-29T15:24:35;37.70;37.30
59961;DHT22;55902;-37.980;-63.602;2023-01-29T15:27:02;37.80;38.40
59961;DHT22;55902;-37.980;-63.602;2023-01-29T15:29:29;37.50;37.70
59961;DHT22;55902;-37.980;-63.602;2023-01-29T15:32:00;37.70;38.10
59961;DHT22;55902;-37.980;-63.602;2023-01-29T15:34:27;37.60;37.10
59961;DHT22;55902;-37.980;-63.602;2023-01-29T15:36:54;37.80;36.60
59961;DHT22;55902;-37.980;-63.602;2023-01-29T15:39:23;37.60;36.90
59961;DHT22;55902;-37.980;-63.602;2023-01-29T15:42:09;38.00;36.80
59961;DHT22;55902;-37.980;-63.602;2023-01-29T15:44:44;38.00;34.80
59961;DHT22;55902;-37.980;-63.602;2023-01-29T15:47:12;37.80;35.50
59961;DHT22;55902;-37.980;-63.602;2023-01-29T15:49:45;37.60;35.60
59961;DHT22;55902;-37.980;-63.602;2023-01-29T15:52:28;38.00;36.30
59961;DHT22;55902;-37.980;-63.602;2023-01-29T15:55:03;38.20;35.80
59961;DHT22;55902;-37.980;-63.602;2023-01-29T15:57:36;38.30;35.90
59961;DHT22;55902;-37.980;-63.602;2023-01-29T16:00:16;38.60;36.90
59961;DHT22;55902;-37.980;-63.602;2023-01-29T16:02:43;38.40;34.30
59961;DHT22;55902;-37.980;-63.602;2023-01-29T16:05:15;38.30;31.30
59961;DHT22;55902;-37.980;-63.602;2023-01-29T16:07:43;38.10;32.70
59961;DHT22;55902;-37.980;-63.602;2023-01-29T16:10:30;38.00;33.80
59961;DHT22;55902;-37.980;-63.602;2023-01-29T16:12:59;38.00;32.90
59961;DHT22;55902;-37.980;-63.602;2023-01-29T16:15:32;37.90;34.30
59961;DHT22;55902;-37.980;-63.602;2023-01-29T16:18:23;38.10;35.30
59961;DHT22;55902;-37.980;-63.602;2023-01-29T16:20:52;38.50;35.30
59961;DHT22;55902;-37.980;-63.602;2023-01-29T16:23:30;38.50;34.20
59961;DHT22;55902;-37.980;-63.602;2023-01-29T16:26:08;38.80;32.90
59961;DHT22;55902;-37.980;-63.602;2023-01-29T16:28:42;38.80;33.50
59961;DHT22;55902;-37.980;-63.602;2023-01-29T16:31:11;39.20;33.40
59961;DHT22;55902;-37.980;-63.602;2023-01-29T16:33:42;39.20;32.50
59961;DHT22;55902;-37.980;-63.602;2023-01-29T16:36:26;39.10;32.60
59961;DHT22;55902;-37.980;-63.602;2023-01-29T16:38:57;38.80;33.90
59961;DHT22;55902;-37.980;-63.602;2023-01-29T16:41:36;38.70;33.70
59961;DHT22;55902;-37.980;-63.602;2023-01-29T16:44:30;39.10;33.40
59961;DHT22;55902;-37.980;-63.602;2023-01-29T16:47:09;39.20;34.20
59961;DHT22;55902;-37.980;-63.602;2023-01-29T16:49:52;39.40;33.70
59961;DHT22;55902;-37.980;-63.602;2023-01-29T16:52:32;39.50;33.40
59961;DHT22;55902;-37.980;-63.602;2023-01-29T16:55:13;39.10;32.40
59961;DHT22;55902;-37.980;-63.602;2023-01-29T16:57:43;38.90;33.80
59961;DHT22;55902;-37.980;-63.602;2023-01-29T17:00:25;38.80;34.30
59961;DHT22;55902;-37.980;-63.602;2023-01-29T17:03:03;38.90;33.40
59961;DHT22;55902;-37.980;-63.602;2023-01-29T17:05:33;38.70;32.00
59961;DHT22;55902;-37.980;-63.602;2023-01-29T17:08:01;38.90;33.00
59961;DHT22;55902;-37.980;-63.602;2023-01-29T17:10:30;39.30;33.20
59961;DHT22;55902;-37.980;-63.602;2023-01-29T17:15:33;39.60;31.80
59961;DHT22;55902;-37.980;-63.602;2023-01-29T17:18:01;39.20;32.30
59961;DHT22;55902;-37.980;-63.602;2023-01-29T17:20:29;39.40;33.00
59961;DHT22;55902;-37.980;-63.602;2023-01-29T17:22:56;39.60;32.10
59961;DHT22;55902;-37.980;-63.602;2023-01-29T17:25:23;39.90;30.20
59961;DHT22;55902;-37.980;-63.602;2023-01-29T17:27:54;40.10;31.20
59961;DHT22;55902;-37.980;-63.602;2023-01-29T17:30:22;40.20;30.30
59961;DHT22;55902;-37.980;-63.602;2023-01-29T17:32:51;40.10;30.40
59961;DHT22;55902;-37.980;-63.602;2023-01-29T17:35:18;40.00;30.80
59961;DHT22;55902;-37.980;-63.602;2023-01-29T17:37:45;40.10;30.20
59961;DHT22;55902;-37.980;-63.602;2023-01-29T17:40:37;40.00;30.00
59961;DHT22;55902;-37.980;-63.602;2023-01-29T17:43:02;40.20;30.10
59961;DHT22;55902;-37.980;-63.602;2023-01-29T17:45:29;40.30;30.10
59961;DHT22;55902;-37.980;-63.602;2023-01-29T17:47:57;40.20;30.70
59961;DHT22;55902;-37.980;-63.602;2023-01-29T17:50:28;40.00;29.70
59961;DHT22;55902;-37.980;-63.602;2023-01-29T17:52:57;40.10;30.30
59961;DHT22;55902;-37.980;-63.602;2023-01-29T17:55:27;40.10;29.70
59961;DHT22;55902;-37.980;-63.602;2023-01-29T17:57:58;40.30;29.90
59961;DHT22;55902;-37.980;-63.602;2023-01-29T18:00:28;40.00;29.20
59961;DHT22;55902;-37.980;-63.602;2023-01-29T18:02:55;39.80;29.80
59961;DHT22;55902;-37.980;-63.602;2023-01-29T18:05:26;39.90;30.40
59961;DHT22;55902;-37.980;-63.602;2023-01-29T18:07:56;39.90;30.60
59961;DHT22;55902;-37.980;-63.602;2023-01-29T18:10:23;40.20;30.50
59961;DHT22;55902;-37.980;-63.602;2023-01-29T18:12:50;39.60;30.10
59961;DHT22;55902;-37.980;-63.602;2023-01-29T18:15:17;39.40;31.10
59961;DHT22;55902;-37.980;-63.602;2023-01-29T18:17:47;39.40;31.40
59961;DHT22;55902;-37.980;-63.602;2023-01-29T18:20:21;39.50;31.20
59961;DHT22;55902;-37.980;-63.602;2023-01-29T18:22:52;39.20;31.20
59961;DHT22;55902;-37.980;-63.602;2023-01-29T18:25:19;39.10;30.60
59961;DHT22;55902;-37.980;-63.602;2023-01-29T18:27:46;38.50;29.70
59961;DHT22;55902;-37.980;-63.602;2023-01-29T18:30:13;38.30;31.30
59961;DHT22;55902;-37.980;-63.602;2023-01-29T18:32:40;38.00;31.40
59961;DHT22;55902;-37.980;-63.602;2023-01-29T18:35:08;37.90;31.70
59961;DHT22;55902;-37.980;-63.602;2023-01-29T18:37:38;37.70;32.40
59961;DHT22;55902;-37.980;-63.602;2023-01-29T18:40:06;37.40;33.10
59961;DHT22;55902;-37.980;-63.602;2023-01-29T18:42:33;37.00;34.20
59961;DHT22;55902;-37.980;-63.602;2023-01-29T18:45:01;36.80;32.90
59961;DHT22;55902;-37.980;-63.602;2023-01-29T18:47:29;36.80;33.40
59961;DHT22;55902;-37.980;-63.602;2023-01-29T18:49:56;36.70;35.00
59961;DHT22;55902;-37.980;-63.602;2023-01-29T18:52:22;36.50;34.80
59961;DHT22;55902;-37.980;-63.602;2023-01-29T18:54:49;36.40;34.70
59961;DHT22;55902;-37.980;-63.602;2023-01-29T18:57:16;36.30;34.80